Time;durP1;ratioP1;P1;durP2;ratioP2;P2;SDS_P1;SDS_P2;PMS_P1;PMS_P2;Temp;Humidity;BMP_temperature;BMP_pressure;BME280_temperature;BME280_humidity;BME280_pressure;Samples;Min_cycle;Max_cycle;Signal;HPM_P1;HPM_P2
2024/02/09 00:00:02;;;;;;;;;;;;;;;-4.53;63.96;100453.53;5054519;28;19935;-70
2024/02/09 00:02:31;;;;;;;;;;;;;;;-4.51;64.11;100461.22;5054222;28;19955;-70
2024/02/09 00:04:57;;;;;;;;;;;;;;;-4.51;64.03;100462.09;5054281;28;20381;-70
2024/02/09 00:07:24;;;;;;;;;;;;;;;-4.50;64.05;100462.97;5054325;28;19925;-69
2024/02/09 00:09:52;;;;;;;;;;;;;;;-4.50;64.08;100463.84;5054216;28;19931;-70
2024/02/09 00:12:20;;;;;;;;;;;;;;;-4.48;64.13;100472.41;5054152;28;20381;-70
2024/02/09 00:14:47;;;;;;;;;;;;;;;-4.47;64.14;100471.59;5054228;28;19929;-70
2024/02/09 00:17:14;;;;;;;;;;;;;;;-4.47;64.29;100470.72;5054077;28;20281;-70
2024/02/09 00:19:41;;;;;;;;;;;;;;;-4.46;64.07;100480.13;5054173;28;20069;-70
2024/02/09 00:22:07;;;;;;;;;;;;;;;-4.45;64.10;100481.84;5054020;28;19928;-70
2024/02/09 00:24:34;;;;;;;;;;;;;;;-4.45;64.30;100480.16;5053878;28;19925;-70
2024/02/09 00:27:04;;;;;;;;;;;;;;;-4.43;64.16;100488.75;5083634;28;19928;-77
2024/02/09 00:29:31;;;;;;;;;;;;;;;-4.43;64.44;100481.09;5094238;28;19928;-77
2024/02/09 00:31:58;;;;;;;;;;;;;;;-4.43;64.18;100475.13;5094118;28;19928;-77
2024/02/09 00:34:24;;;;;;;;;;;;;;;-4.45;64.18;100482.72;5094170;28;19924;-77
2024/02/09 00:36:51;;;;;;;;;;;;;;;-4.44;64.57;100481.91;5094293;28;19939;-73
2024/02/09 00:39:18;;;;;;;;;;;;;;;-4.44;64.24;100476.81;5093966;28;19945;-73
2024/02/09 00:41:44;;;;;;;;;;;;;;;-4.44;64.42;100488.72;5073799;28;19929;-73
2024/02/09 00:44:12;;;;;;;;;;;;;;;-4.45;64.36;100487.81;5073651;28;20404;-73
2024/02/09 00:46:41;;;;;;;;;;;;;;;-4.46;64.33;100491.22;5073860;28;19950;-73
2024/02/09 00:49:09;;;;;;;;;;;;;;;-4.46;64.23;100488.66;5073502;28;19924;-73
2024/02/09 00:51:36;;;;;;;;;;;;;;;-4.45;64.11;100495.50;5073754;28;19991;-73
2024/02/09 00:54:03;;;;;;;;;;;;;;;-4.46;64.43;100490.34;5066138;28;19928;-73
2024/02/09 00:56:29;;;;;;;;;;;;;;;-4.47;64.36;100496.25;5053463;28;19932;-73
2024/02/09 00:58:56;;;;;;;;;;;;;;;-4.47;64.39;100499.69;5053326;28;19924;-73
2024/02/09 01:01:24;;;;;;;;;;;;;;;-4.47;64.10;100501.34;5053338;28;19924;-73
2024/02/09 01:03:53;;;;;;;;;;;;;;;-4.49;64.17;100498.78;5053271;28;20125;-72
2024/02/09 01:06:21;;;;;;;;;;;;;;;-4.50;64.23;100504.69;5053377;28;19928;-73
2024/02/09 01:08:48;;;;;;;;;;;;;;;-4.50;64.53;100504.69;5052966;28;20020;-73
2024/02/09 01:11:16;;;;;;;;;;;;;;;-4.50;64.21;100509.81;5053181;28;19924;-73
2024/02/09 02:46:21;;;;;;;;;;;;;;;-4.27;64.76;100543.78;5096487;28;19932;-77
2024/02/09 03:05:14;;;;;;;;;;;;;;;-4.30;67.39;100538.56;5055592;28;19975;-76
2024/02/09 03:07:41;;;;;;;;;;;;;;;-4.30;68.13;100548.78;5055819;28;20333;-76
2024/02/09 03:10:10;;;;;;;;;;;;;;;-4.30;68.18;100545.34;5055362;28;19924;-76
2024/02/09 03:12:37;;;;;;;;;;;;;;;-4.31;68.88;100552.13;5055396;28;19979;-76
2024/02/09 03:15:05;;;;;;;;;;;;;;;-4.33;68.34;100553.81;5055268;28;20460;-76
2024/02/09 03:17:32;;;;;;;;;;;;;;;-4.32;68.86;100554.66;5055767;28;20432;-76
2024/02/09 03:20:00;;;;;;;;;;;;;;;-4.32;68.48;100554.66;5075398;28;19928;-76
2024/02/09 03:22:27;;;;;;;;;;;;;;;-4.32;68.27;100555.53;5075100;28;19925;-76
2024/02/09 03:24:54;;;;;;;;;;;;;;;-4.31;68.24;100552.13;5075181;28;19978;-76
2024/02/09 03:27:22;;;;;;;;;;;;;;;-4.31;69.50;100559.81;5075194;28;20266;-76
2024/02/09 03:29:48;;;;;;;;;;;;;;;-4.31;69.36;100556.38;5075200;28;20277;-76
2024/02/09 03:32:15;;;;;;;;;;;;;;;-4.31;70.48;100562.34;5075042;28;19925;-76
2024/02/09 03:34:43;;;;;;;;;;;;;;;-4.31;70.49;100564.03;5074927;28;19929;-75
2024/02/09 03:37:10;;;;;;;;;;;;;;;-4.31;70.57;100564.03;5075292;28;19952;-76
2024/02/09 03:39:38;;;;;;;;;;;;;;;-4.31;71.19;100564.91;5074895;28;19924;-76
2024/02/09 03:42:05;;;;;;;;;;;;;;;-4.31;71.02;100564.03;5074961;28;20003;-76
2024/02/09 03:44:33;;;;;;;;;;;;;;;-4.32;70.84;100567.44;5074741;28;19931;-76
2024/02/09 03:46:59;;;;;;;;;;;;;;;-4.33;70.87;100571.69;5074719;28;19929;-76
2024/02/09 03:49:26;;;;;;;;;;;;;;;-4.32;71.54;100575.09;5074677;28;19975;-76
2024/02/09 03:51:53;;;;;;;;;;;;;;;-4.33;71.45;100573.34;5074550;28;20300;-76
2024/02/09 03:54:19;;;;;;;;;;;;;;;-4.32;72.08;100581.06;5074779;28;19924;-76
2024/02/09 03:56:46;;;;;;;;;;;;;;;-4.33;72.06;100579.34;5074571;28;20384;-72
2024/02/09 03:59:13;;;;;;;;;;;;;;;-4.33;72.45;100584.44;5074449;28;19978;-71
2024/02/09 04:01:41;;;;;;;;;;;;;;;-4.32;72.07;100591.28;5074500;28;20373;-72
2024/02/09 04:04:07;;;;;;;;;;;;;;;-4.32;72.10;100590.41;5074674;28;20399;-72
2024/02/09 04:06:34;;;;;;;;;;;;;;;-4.31;72.03;100597.25;5074466;28;19978;-70
2024/02/09 04:09:01;;;;;;;;;;;;;;;-4.31;72.38;100602.34;5074079;28;19930;-70
2024/02/09 04:11:28;;;;;;;;;;;;;;;-4.32;72.38;100601.50;5074249;28;19925;-70
2024/02/09 04:13:55;;;;;;;;;;;;;;;-4.33;72.37;100607.44;5073966;28;19924;-70
2024/02/09 04:16:21;;;;;;;;;;;;;;;-4.33;71.66;100611.66;5074251;28;20300;-70
2024/02/09 04:18:49;;;;;;;;;;;;;;;-4.34;71.94;100620.13;5074143;28;19931;-70
2024/02/09 04:21:16;;;;;;;;;;;;;;;-4.35;71.93;100613.31;5073899;28;19924;-70
2024/02/09 04:23:43;;;;;;;;;;;;;;;-4.36;71.92;100616.66;5074093;28;19928;-70
2024/02/09 04:26:09;;;;;;;;;;;;;;;-4.37;72.26;100613.22;5073947;28;19978;-70
2024/02/09 04:28:36;;;;;;;;;;;;;;;-4.37;71.73;100617.47;5073794;28;19931;-70
2024/02/09 04:31:03;;;;;;;;;;;;;;;-4.38;72.00;100625.97;5073696;28;20297;-70
2024/02/09 04:33:31;;;;;;;;;;;;;;;-4.38;72.12;100623.41;5073663;28;19930;-70
2024/02/09 04:35:59;;;;;;;;;;;;;;;-4.38;72.27;100631.06;5073404;28;19924;-70
2024/02/09 04:38:26;;;;;;;;;;;;;;;-4.40;71.93;100626.75;5073680;28;19925;-70
2024/02/09 04:40:55;;;;;;;;;;;;;;;-4.40;71.72;100626.75;5073720;28;19931;-70
2024/02/09 04:43:22;;;;;;;;;;;;;;;-4.41;71.97;100619.94;5073307;28;19971;-70
2024/02/09 04:45:49;;;;;;;;;;;;;;;-4.43;72.07;100621.53;5073729;28;19931;-69
2024/02/09 04:48:15;;;;;;;;;;;;;;;-4.43;71.63;100626.66;5073507;28;19931;-70
2024/02/09 04:50:42;;;;;;;;;;;;;;;-4.46;71.28;100626.53;5073638;28;19924;-70
2024/02/09 04:53:11;;;;;;;;;;;;;;;-4.44;70.98;100634.28;5066512;28;19931;-70
2024/02/09 04:55:39;;;;;;;;;;;;;;;-4.45;71.03;100641.03;5053455;28;19978;-70
2024/02/09 04:58:06;;;;;;;;;;;;;;;-4.44;70.91;100642.81;5053287;28;19936;-70
2024/02/09 05:00:33;;;;;;;;;;;;;;;-4.45;70.81;100646.16;5053456;28;19976;-70
2024/02/09 05:03:00;;;;;;;;;;;;;;;-4.45;70.47;100650.38;5053563;28;19929;-70
2024/02/09 05:05:30;;;;;;;;;;;;;;;-4.44;70.44;100644.50;5053430;28;19929;-70
2024/02/09 05:07:57;;;;;;;;;;;;;;;-4.47;70.41;100646.91;5053402;28;19924;-74
2024/02/09 05:10:25;;;;;;;;;;;;;;;-4.47;70.35;100655.47;5053139;28;19931;-74
2024/02/09 05:12:52;;;;;;;;;;;;;;;-4.48;70.59;100658.81;5053206;28;19931;-74
2024/02/09 05:15:18;;;;;;;;;;;;;;;-4.48;70.77;100663.06;5053141;28;20012;-74
2024/02/09 05:17:45;;;;;;;;;;;;;;;-4.49;70.75;100664.75;5053326;28;19929;-75
2024/02/09 05:20:13;;;;;;;;;;;;;;;-4.49;70.78;100662.19;5053346;28;19932;-76
2024/02/09 05:22:40;;;;;;;;;;;;;;;-4.50;70.88;100673.22;5053146;28;19928;-76
2024/02/09 05:25:07;;;;;;;;;;;;;;;-4.52;71.00;100672.28;5053226;28;19940;-76
2024/02/09 05:27:35;;;;;;;;;;;;;;;-4.54;71.28;100676.47;5053067;28;19935;-75
2024/02/09 05:30:02;;;;;;;;;;;;;;;-4.55;70.95;100679.84;5052908;28;19929;-76
2024/02/09 05:32:30;;;;;;;;;;;;;;;-4.56;70.88;100678.09;5053018;28;20285;-76
2024/02/09 05:34:57;;;;;;;;;;;;;;;-4.56;70.90;100685.75;5053050;28;19925;-76
2024/02/09 05:37:24;;;;;;;;;;;;;;;-4.56;70.92;100684.88;5052873;28;19955;-76
2024/02/09 05:39:51;;;;;;;;;;;;;;;-4.57;70.71;100685.69;5053067;28;19997;-75
2024/02/09 05:42:18;;;;;;;;;;;;;;;-4.55;70.71;100691.75;5053075;28;19932;-76
2024/02/09 05:44:46;;;;;;;;;;;;;;;-4.57;70.89;100696.78;5053097;28;19925;-76
2024/02/09 05:47:13;;;;;;;;;;;;;;;-4.58;71.09;100697.59;5052868;28;19924;-75
2024/02/09 05:49:39;;;;;;;;;;;;;;;-4.59;70.74;100695.84;5052865;28;20421;-76
2024/02/09 05:52:07;;;;;;;;;;;;;;;-4.58;70.99;100699.28;5052757;28;19935;-76
2024/02/09 05:54:34;;;;;;;;;;;;;;;-4.59;70.78;100702.63;5054129;28;20345;-75
2024/02/09 05:57:00;;;;;;;;;;;;;;;-4.60;70.67;100711.13;5056859;28;19924;-76
2024/02/09 05:59:27;;;;;;;;;;;;;;;-4.61;70.73;100715.38;5057072;28;20277;-76
2024/02/09 06:01:55;;;;;;;;;;;;;;;-4.63;71.12;100712.75;5056711;28;19929;-75
2024/02/09 06:04:22;;;;;;;;;;;;;;;-4.63;70.85;100716.97;5056622;28;19931;-75
2024/02/09 06:06:49;;;;;;;;;;;;;;;-4.65;70.90;100713.50;5056725;28;19978;-74
2024/02/09 06:09:15;;;;;;;;;;;;;;;-4.68;70.75;100709.13;5056642;28;19924;-75
2024/02/09 06:11:42;;;;;;;;;;;;;;;-4.70;70.91;100715.00;5028593;28;19924;-74
2024/02/09 06:14:09;;;;;;;;;;;;;;;-4.72;70.67;100711.53;5064266;28;19925;-74
2024/02/09 06:16:36;;;;;;;;;;;;;;;-4.73;70.78;100714.88;5056402;28;20385;-74
2024/02/09 06:19:04;;;;;;;;;;;;;;;-4.75;70.82;100712.28;5061032;28;19924;-74
2024/02/09 06:21:31;;;;;;;;;;;;;;;-4.76;71.20;100719.88;5076310;28;19924;-75
2024/02/09 06:23:57;;;;;;;;;;;;;;;-4.77;70.85;100720.69;5076340;28;20282;-75
2024/02/09 06:26:24;;;;;;;;;;;;;;;-4.79;70.97;100720.63;5076144;28;19928;-70
2024/02/09 06:28:51;;;;;;;;;;;;;;;-4.80;70.93;100718.03;5075879;28;20377;-70
2024/02/09 06:31:18;;;;;;;;;;;;;;;-4.80;70.93;100721.44;5076077;28;19925;-70
2024/02/09 06:33:49;;;;;;;;;;;;;;;-4.81;71.24;100721.38;5076143;28;19978;-69
2024/02/09 06:36:17;;;;;;;;;;;;;;;-4.80;71.02;100725.69;5076040;28;19924;-69
2024/02/09 06:38:44;;;;;;;;;;;;;;;-4.81;70.88;100723.91;5076218;28;20287;-69
2024/02/09 06:41:11;;;;;;;;;;;;;;;-4.83;70.84;100728.97;5075954;28;19924;-69
2024/02/09 06:43:37;;;;;;;;;;;;;;;-4.85;70.82;100726.34;5075739;28;20291;-69
2024/02/09 06:46:04;;;;;;;;;;;;;;;-4.83;71.02;100733.22;5076069;28;20406;-69
2024/02/09 06:48:31;;;;;;;;;;;;;;;-4.86;71.01;100729.72;5075585;28;19924;-70
2024/02/09 06:50:58;;;;;;;;;;;;;;;-4.86;70.96;100734.84;5075951;28;20304;-70
2024/02/09 06:53:26;;;;;;;;;;;;;;;-4.85;71.12;100734.00;5063099;28;19931;-70
2024/02/09 06:55:53;;;;;;;;;;;;;;;-4.85;71.09;100741.66;5055582;28;19932;-68
2024/02/09 06:58:20;;;;;;;;;;;;;;;-4.85;71.10;100749.31;5055691;28;19931;-69
2024/02/09 07:00:48;;;;;;;;;;;;;;;-4.85;71.16;100736.56;5055597;28;19925;-70
2024/02/09 07:03:17;;;;;;;;;;;;;;;-4.85;70.91;100741.66;5055648;28;19925;-70
2024/02/09 07:05:45;;;;;;;;;;;;;;;-4.86;70.95;100746.72;5055160;28;20328;-70
2024/02/09 07:08:13;;;;;;;;;;;;;;;-4.86;71.01;100751.84;5055564;28;19936;-70
2024/02/09 07:10:41;;;;;;;;;;;;;;;-4.85;71.16;100753.56;5055347;28;20380;-70
2024/02/09 07:13:07;;;;;;;;;;;;;;;-4.85;71.10;100751.88;5055353;28;20399;-70
2024/02/09 07:15:34;;;;;;;;;;;;;;;-4.85;70.91;100753.56;5055446;28;19929;-70
2024/02/09 07:18:00;;;;;;;;;;;;;;;-4.86;71.02;100755.25;5055286;28;20370;-70
2024/02/09 07:20:27;;;;;;;;;;;;;;;-4.87;70.97;100756.06;5055345;28;19924;-70
2024/02/09 07:22:54;;;;;;;;;;;;;;;-4.87;70.60;100760.28;5055154;28;20031;-70
2024/02/09 07:25:20;;;;;;;;;;;;;;;-4.87;70.45;100753.53;5055356;28;19929;-70
2024/02/09 07:27:48;;;;;;;;;;;;;;;-4.87;70.65;100773.94;5055296;28;19925;-74
2024/02/09 07:30:17;;;;;;;;;;;;;;;-4.87;70.80;100768.84;5054980;28;19929;-74
2024/02/09 07:32:43;;;;;;;;;;;;;;;-4.87;70.93;100763.72;5054955;28;19931;-74
2024/02/09 07:35:10;;;;;;;;;;;;;;;-4.87;71.04;100763.72;5054916;28;19935;-71
2024/02/09 07:37:37;;;;;;;;;;;;;;;-4.88;70.94;100764.50;5055069;28;19982;-77
2024/02/09 07:40:09;;;;;;;;;;;;;;;-4.87;71.01;100773.03;5054842;28;19932;-77
2024/02/09 07:42:35;;;;;;;;;;;;;;;-4.88;71.17;100769.63;5055071;28;19946;-78
2024/02/09 07:45:03;;;;;;;;;;;;;;;-4.87;71.23;100767.94;5054964;28;19924;-78
2024/02/09 07:47:30;;;;;;;;;;;;;;;-4.86;70.88;100773.13;5054961;28;19925;-75
2024/02/09 07:49:57;;;;;;;;;;;;;;;-4.86;71.00;100780.78;5054688;28;20019;-75
2024/02/09 07:52:28;;;;;;;;;;;;;;;-4.85;71.18;100779.94;5054519;28;19931;-75
2024/02/09 07:54:54;;;;;;;;;;;;;;;-4.83;70.86;100794.47;5054725;28;19935;-75
2024/02/09 07:57:21;;;;;;;;;;;;;;;-4.81;70.95;100790.28;5054521;28;19947;-75
2024/02/09 07:59:49;;;;;;;;;;;;;;;-4.82;70.54;100791.09;5054377;28;19931;-75
2024/02/09 08:02:18;;;;;;;;;;;;;;;-4.84;70.42;100788.50;5054431;28;19959;-75
2024/02/09 08:04:45;;;;;;;;;;;;;;;-4.85;70.39;100787.59;5054287;28;19928;-75
2024/02/09 08:07:14;;;;;;;;;;;;;;;-4.87;70.41;100784.13;5054679;28;19929;-75
2024/02/09 08:09:40;;;;;;;;;;;;;;;-4.89;70.41;100787.44;5054851;28;19948;-75
2024/02/09 08:12:07;;;;;;;;;;;;;;;-4.91;70.29;100792.47;5054207;28;19925;-75
2024/02/09 08:14:36;;;;;;;;;;;;;;;-4.93;70.35;100791.56;5054251;28;19929;-75
2024/02/09 08:17:03;;;;;;;;;;;;;;;-4.91;70.48;100794.16;5053230;28;20400;-75
2024/02/09 08:19:33;;;;;;;;;;;;;;;-4.89;70.44;100802.75;5054018;28;20348;-75
2024/02/09 08:21:59;;;;;;;;;;;;;;;-4.88;70.18;100801.94;5054223;28;20312;-75
2024/02/09 08:24:26;;;;;;;;;;;;;;;-4.87;70.51;100801.09;5053946;28;19924;-78
2024/02/09 08:26:53;;;;;;;;;;;;;;;-4.86;70.21;100798.63;5054126;28;20369;-77
2024/02/09 08:29:20;;;;;;;;;;;;;;;-4.83;70.36;100799.56;5054035;28;19924;-77
2024/02/09 08:31:46;;;;;;;;;;;;;;;-4.80;70.25;100813.31;5056622;28;21092;-77
2024/02/09 08:34:13;;;;;;;;;;;;;;;-4.77;70.28;100805.78;5073925;28;19924;-77
2024/02/09 08:36:41;;;;;;;;;;;;;;;-4.74;70.17;100815.25;5073950;28;19924;-76
2024/02/09 08:39:08;;;;;;;;;;;;;;;-4.73;70.12;100819.53;5073901;28;19963;-76
2024/02/09 08:41:35;;;;;;;;;;;;;;;-4.72;69.99;100814.50;5073738;28;19928;-76
2024/02/09 08:44:01;;;;;;;;;;;;;;;-4.70;70.06;100824.75;5074101;28;20008;-78
2024/02/09 08:46:28;;;;;;;;;;;;;;;-4.68;69.88;100820.59;5073903;28;20300;-71
2024/02/09 08:48:56;;;;;;;;;;;;;;;-4.67;69.86;100818.13;5073453;28;19934;-70
2024/02/09 08:51:22;;;;;;;;;;;;;;;-4.66;69.77;100819.84;5073534;28;19931;-73
2024/02/09 08:53:50;;;;;;;;;;;;;;;-4.65;69.83;100823.25;5053816;28;19925;-70
2024/02/09 08:56:17;;;;;;;;;;;;;;;-4.63;69.50;100829.31;5053404;28;20419;-70
2024/02/09 08:58:44;;;;;;;;;;;;;;;-4.63;69.69;100821.66;5060442;28;19930;-70
2024/02/09 09:01:11;;;;;;;;;;;;;;;-4.63;69.49;100825.06;5073531;28;19931;-71
2024/02/09 09:03:37;;;;;;;;;;;;;;;-4.63;69.79;100822.50;5073260;28;19978;-73
2024/02/09 09:06:05;;;;;;;;;;;;;;;-4.60;69.40;100837.09;5073306;28;20309;-71
2024/02/09 09:08:32;;;;;;;;;;;;;;;-4.59;69.17;100836.25;5073087;28;19951;-73
2024/02/09 09:11:01;;;;;;;;;;;;;;;-4.57;69.29;100839.75;5073299;28;19924;-73
2024/02/09 09:13:28;;;;;;;;;;;;;;;-4.57;69.43;100839.75;5073317;28;20019;-73
2024/02/09 09:15:54;;;;;;;;;;;;;;;-4.56;69.21;100838.06;5073264;28;20266;-73
2024/02/09 09:18:21;;;;;;;;;;;;;;;-4.56;69.31;100836.38;5073238;28;19931;-71
2024/02/09 09:20:48;;;;;;;;;;;;;;;-4.54;69.30;100834.78;5073183;28;19970;-73
2024/02/09 09:23:15;;;;;;;;;;;;;;;-4.52;69.14;100833.16;5073029;28;19924;-72
2024/02/09 09:25:41;;;;;;;;;;;;;;;-4.50;69.25;100841.75;5073162;28;20385;-73
2024/02/09 09:28:09;;;;;;;;;;;;;;;-4.48;69.07;100837.56;5072858;28;19925;-74
2024/02/09 09:30:36;;;;;;;;;;;;;;;-4.46;69.22;100846.16;5073111;28;19935;-74
2024/02/09 09:33:03;;;;;;;;;;;;;;;-4.44;69.26;100852.22;5072725;28;20373;-73
2024/02/09 09:35:30;;;;;;;;;;;;;;;-4.43;69.12;100843.72;5073078;28;20508;-72
2024/02/09 09:37:57;;;;;;;;;;;;;;;-4.41;68.90;100848.91;5072930;28;19935;-74
2024/02/09 09:40:26;;;;;;;;;;;;;;;-4.40;69.09;100848.09;5073058;28;19928;-74
2024/02/09 09:42:53;;;;;;;;;;;;;;;-4.37;69.40;100849.88;5072519;28;19924;-74
2024/02/09 09:45:21;;;;;;;;;;;;;;;-4.34;69.07;100847.44;5072931;28;19932;-76
2024/02/09 09:47:48;;;;;;;;;;;;;;;-4.31;68.74;100852.69;5072981;28;20378;-71
2024/02/09 09:50:15;;;;;;;;;;;;;;;-4.28;68.70;100860.47;5073082;28;20278;-70
2024/02/09 09:52:49;;;;;;;;;;;;;;;-4.28;68.45;100855.34;5072736;28;19924;-70
2024/02/09 09:55:17;;;;;;;;;;;;;;;-4.29;68.28;100851.94;5072876;28;19986;-70
2024/02/09 09:57:44;;;;;;;;;;;;;;;-4.28;67.91;100852.78;5072810;28;19930;-78
2024/02/09 10:00:12;;;;;;;;;;;;;;;-4.29;67.96;100854.47;5072808;28;19925;-79
2024/02/09 10:02:40;;;;;;;;;;;;;;;-4.29;67.49;100851.06;5072769;28;19924;-72
2024/02/09 10:05:09;;;;;;;;;;;;;;;-4.31;67.52;100850.13;5072649;28;20386;-71
2024/02/09 10:07:40;;;;;;;;;;;;;;;-4.32;67.29;100848.41;5073017;28;19935;-75
2024/02/09 10:10:09;;;;;;;;;;;;;;;-4.33;67.15;100854.28;5072670;28;20415;-76
2024/02/09 10:12:36;;;;;;;;;;;;;;;-4.36;66.87;100851.63;5072715;28;19931;-77
2024/02/09 10:15:04;;;;;;;;;;;;;;;-4.40;66.58;100854.06;5073412;28;19930;-80
2024/02/09 10:17:31;;;;;;;;;;;;;;;-4.44;66.77;100847.09;5073193;28;19925;-80
2024/02/09 10:19:59;;;;;;;;;;;;;;;-4.49;66.66;100843.50;5073537;28;20385;-76
2024/02/09 10:22:27;;;;;;;;;;;;;;;-4.52;66.99;100840.81;5072754;28;19958;-77
2024/02/09 10:24:54;;;;;;;;;;;;;;;-4.51;67.06;100844.25;5072600;28;20373;-76
2024/02/09 10:27:21;;;;;;;;;;;;;;;-4.50;66.80;100846.88;5073429;28;19932;-78
2024/02/09 10:29:48;;;;;;;;;;;;;;;-4.49;66.47;100850.28;5073087;28;20300;-76
2024/02/09 10:32:14;;;;;;;;;;;;;;;-4.50;66.54;100841.75;5072633;28;19972;-78
2024/02/09 10:34:41;;;;;;;;;;;;;;;-4.49;66.40;100847.72;5072569;28;20306;-76
2024/02/09 10:37:09;;;;;;;;;;;;;;;-4.48;66.65;100855.44;5072333;28;19928;-76
2024/02/09 10:39:35;;;;;;;;;;;;;;;-4.46;66.81;100858.06;5072427;28;20395;-76
2024/02/09 10:42:03;;;;;;;;;;;;;;;-4.42;66.93;100867.56;5075751;28;19925;-76
2024/02/09 10:44:31;;;;;;;;;;;;;;;-4.40;67.25;100859.16;5076019;28;19928;-76
2024/02/09 10:46:59;;;;;;;;;;;;;;;-4.38;66.75;100868.59;5076059;28;19970;-77
2024/02/09 10:49:27;;;;;;;;;;;;;;;-4.36;66.90;100860.16;5056066;28;20370;-78
2024/02/09 10:51:56;;;;;;;;;;;;;;;-4.34;66.72;100862.78;5055719;28;19925;-77
2024/02/09 10:54:26;;;;;;;;;;;;;;;-4.35;66.18;100859.34;5066480;28;19929;-77
2024/02/09 10:56:53;;;;;;;;;;;;;;;-4.35;66.16;100861.03;5075969;28;19931;-78
2024/02/09 10:59:20;;;;;;;;;;;;;;;-4.34;66.44;100867.88;5075739;28;19931;-75
2024/02/09 11:01:47;;;;;;;;;;;;;;;-4.34;66.17;100870.44;5075797;28;19928;-76
2024/02/09 11:04:13;;;;;;;;;;;;;;;-4.34;66.18;100862.78;5075498;28;19931;-75
2024/02/09 11:06:41;;;;;;;;;;;;;;;-4.33;66.26;100859.41;5076142;28;19934;-77
2024/02/09 11:09:10;;;;;;;;;;;;;;;-4.33;66.05;100865.41;5075591;28;20024;-77
2024/02/09 11:11:40;;;;;;;;;;;;;;;-4.33;66.26;100854.28;5075988;28;20446;-80
2024/02/09 11:14:07;;;;;;;;;;;;;;;-4.31;66.14;100865.44;5075977;28;19928;-80
2024/02/09 11:16:41;;;;;;;;;;;;;;;-4.29;66.11;100862.16;5075819;28;19934;-79
2024/02/09 11:19:10;;;;;;;;;;;;;;;-4.25;66.31;100865.69;5076135;28;20011;-80
2024/02/09 11:21:37;;;;;;;;;;;;;;;-4.22;66.51;100873.47;5076176;28;19931;-81
2024/02/09 11:24:06;;;;;;;;;;;;;;;-4.18;66.64;100872.78;5075883;28;19929;-80
2024/02/09 11:26:37;;;;;;;;;;;;;;;-4.15;66.74;100874.59;5076118;28;19932;-79
2024/02/09 11:29:05;;;;;;;;;;;;;;;-4.13;66.75;100873.84;5076059;28;19970;-80
2024/02/09 11:31:32;;;;;;;;;;;;;;;-4.10;66.96;100871.41;5075726;28;19931;-80
2024/02/09 11:34:00;;;;;;;;;;;;;;;-4.08;66.24;100872.31;5075554;28;20288;-80
2024/02/09 11:36:28;;;;;;;;;;;;;;;-4.10;66.47;100873.97;5075472;28;19928;-80
2024/02/09 11:38:57;;;;;;;;;;;;;;;-4.08;66.18;100881.66;5075421;28;19939;-79
2024/02/09 11:41:24;;;;;;;;;;;;;;;-4.08;66.42;100877.41;5075592;28;19924;-79
2024/02/09 11:43:51;;;;;;;;;;;;;;;-4.07;66.21;100884.28;5075506;28;19931;-79
2024/02/09 11:46:19;;;;;;;;;;;;;;;-4.07;65.97;100879.19;5075358;28;19925;-79
2024/02/09 11:48:46;;;;;;;;;;;;;;;-4.05;66.20;100882.66;5075273;28;19924;-80
2024/02/09 11:51:20;;;;;;;;;;;;;;;-4.03;65.96;100885.28;5075633;28;19947;-80
2024/02/09 11:53:49;;;;;;;;;;;;;;;-4.04;66.50;100884.41;5075171;28;19928;-80
2024/02/09 11:56:16;;;;;;;;;;;;;;;-4.02;66.43;100887.88;5075189;28;19925;-79
2024/02/09 11:58:43;;;;;;;;;;;;;;;-4.00;66.25;100891.38;5075263;28;19925;-80
2024/02/09 12:01:10;;;;;;;;;;;;;;;-3.99;66.67;100888.00;5075040;28;19924;-79
2024/02/09 12:03:38;;;;;;;;;;;;;;;-3.95;66.42;100892.41;5075029;28;19928;-80
2024/02/09 12:06:06;;;;;;;;;;;;;;;-3.91;66.69;100895.09;5074841;28;19931;-74
2024/02/09 12:08:33;;;;;;;;;;;;;;;-3.88;66.50;100892.66;5074459;28;19925;-74
2024/02/09 12:11:00;;;;;;;;;;;;;;;-3.84;66.66;100891.97;5074244;28;19951;-74
2024/02/09 12:13:26;;;;;;;;;;;;;;;-3.80;66.59;100891.25;5074435;28;19928;-73
2024/02/09 12:15:56;;;;;;;;;;;;;;;-3.75;66.90;100889.75;5074337;28;19931;-74
2024/02/09 12:18:24;;;;;;;;;;;;;;;-3.72;66.70;100888.16;5074122;28;20347;-75
2024/02/09 12:20:54;;;;;;;;;;;;;;;-3.68;66.37;100884.03;5074125;28;20289;-76
2024/02/09 12:23:20;;;;;;;;;;;;;;;-3.64;66.40;100885.91;5074192;28;20389;-75
2024/02/09 12:25:48;;;;;;;;;;;;;;;-3.61;66.82;100885.13;5074159;28;19939;-76
2024/02/09 12:28:20;;;;;;;;;;;;;;;-3.57;66.78;100889.53;5073962;28;19928;-76
2024/02/09 12:30:46;;;;;;;;;;;;;;;-3.53;66.66;100896.53;5073979;28;20407;-76
2024/02/09 12:33:18;;;;;;;;;;;;;;;-3.50;66.80;100894.94;5073647;28;19929;-75
2024/02/09 12:35:44;;;;;;;;;;;;;;;-3.45;66.80;100899.34;5073775;28;19925;-76
2024/02/09 12:38:15;;;;;;;;;;;;;;;-3.41;66.05;100906.31;5073567;28;19932;-76
2024/02/09 12:40:43;;;;;;;;;;;;;;;-3.39;66.25;100900.44;5073738;28;19924;-76
2024/02/09 12:43:10;;;;;;;;;;;;;;;-3.38;66.84;100898.75;5073617;28;19971;-76
2024/02/09 12:45:37;;;;;;;;;;;;;;;-3.37;66.68;100895.38;5073632;28;19928;-76
2024/02/09 12:48:04;;;;;;;;;;;;;;;-3.35;66.51;100903.97;5073614;28;20286;-76
2024/02/09 12:50:31;;;;;;;;;;;;;;;-3.32;66.85;100899.84;5073521;28;19928;-76
2024/02/09 12:52:57;;;;;;;;;;;;;;;-3.31;66.14;100893.03;5054233;28;19979;-76
2024/02/09 12:55:25;;;;;;;;;;;;;;;-3.29;66.84;100894.81;5053555;28;19925;-76
2024/02/09 12:57:53;;;;;;;;;;;;;;;-3.28;66.46;100894.03;5053740;28;20302;-75
2024/02/09 13:00:21;;;;;;;;;;;;;;;-3.26;66.91;100891.50;5053475;28;19971;-76
2024/02/09 13:02:48;;;;;;;;;;;;;;;-3.25;67.01;100895.78;5052921;28;20373;-76
2024/02/09 13:05:14;;;;;;;;;;;;;;;-3.23;66.74;100901.84;5053354;28;19931;-76
2024/02/09 13:07:41;;;;;;;;;;;;;;;-3.22;66.95;100898.50;5053476;28;19947;-76
2024/02/09 13:10:10;;;;;;;;;;;;;;;-3.20;66.96;100901.94;5053164;28;19935;-75
2024/02/09 13:12:38;;;;;;;;;;;;;;;-3.20;66.86;100901.94;5053312;28;20395;-76
2024/02/09 13:15:06;;;;;;;;;;;;;;;-3.19;66.50;100901.16;5053095;28;19924;-76
2024/02/09 13:17:35;;;;;;;;;;;;;;;-3.18;66.83;100902.88;5053197;28;20389;-73
2024/02/09 13:20:02;;;;;;;;;;;;;;;-3.17;66.47;100899.50;5053323;28;19925;-73
2024/02/09 13:22:28;;;;;;;;;;;;;;;-3.16;66.94;100893.59;5053001;28;19971;-73
2024/02/09 13:24:55;;;;;;;;;;;;;;;-3.14;66.38;100903.84;5053002;28;20292;-74
2024/02/09 13:27:21;;;;;;;;;;;;;;;-3.13;66.76;100901.38;5053643;28;19931;-80
2024/02/09 13:29:50;;;;;;;;;;;;;;;-3.13;66.24;100906.47;5053845;28;19933;-80
2024/02/09 13:32:18;;;;;;;;;;;;;;;-3.12;66.67;100909.91;5053732;28;19925;-80
2024/02/09 13:34:44;;;;;;;;;;;;;;;-3.13;66.81;100906.47;5053657;28;20385;-80
2024/02/09 13:37:11;;;;;;;;;;;;;;;-3.13;66.46;100898.81;5053397;28;19931;-80
2024/02/09 13:39:37;;;;;;;;;;;;;;;-3.15;66.62;100905.56;5053619;28;19935;-80
2024/02/09 13:42:04;;;;;;;;;;;;;;;-3.16;66.74;100911.50;5053850;28;19931;-80
2024/02/09 13:44:32;;;;;;;;;;;;;;;-3.16;66.58;100913.16;5053627;28;19931;-80
2024/02/09 13:47:01;;;;;;;;;;;;;;;-3.19;66.94;100906.28;5053694;28;20300;-81
2024/02/09 13:49:27;;;;;;;;;;;;;;;-3.19;66.73;100901.16;5053814;28;19932;-80
2024/02/09 13:51:55;;;;;;;;;;;;;;;-3.20;66.30;100898.53;5053491;28;19931;-80
2024/02/09 13:54:22;;;;;;;;;;;;;;;-3.21;66.24;100901.91;5053538;28;20043;-80
2024/02/09 13:56:48;;;;;;;;;;;;;;;-3.24;66.17;100897.56;5053578;28;20381;-80
2024/02/09 13:59:16;;;;;;;;;;;;;;;-3.26;66.69;100904.31;5053555;28;19925;-80
2024/02/09 14:01:44;;;;;;;;;;;;;;;-3.29;66.75;100897.38;5053566;28;19970;-80
2024/02/09 14:04:12;;;;;;;;;;;;;;;-3.30;66.52;100897.34;5053318;28;20381;-80
2024/02/09 14:06:42;;;;;;;;;;;;;;;-3.32;66.58;100899.84;5053448;28;19924;-80
2024/02/09 14:09:09;;;;;;;;;;;;;;;-3.35;66.56;100894.63;5053592;28;20031;-80
2024/02/09 14:11:38;;;;;;;;;;;;;;;-3.36;66.69;100894.53;5053519;28;19924;-80
2024/02/09 14:14:05;;;;;;;;;;;;;;;-3.38;66.65;100891.94;5053484;28;19931;-80
2024/02/09 14:16:35;;;;;;;;;;;;;;;-3.40;66.66;100888.44;5056457;28;20266;-80
2024/02/09 14:19:04;;;;;;;;;;;;;;;-3.42;66.81;100889.22;5057325;28;19924;-81
2024/02/09 14:21:32;;;;;;;;;;;;;;;-3.45;66.51;100886.53;5057067;28;19925;-80
2024/02/09 14:24:00;;;;;;;;;;;;;;;-3.49;66.77;100885.56;5057084;28;19925;-80